KPRO/PRO METAR and TAF weather

Enter ICAO airport designator
Station Type Date Time Source
KPRO METAR 2022/06/29 00:55 UTC NOAA

KPRO 290055Z AUTO 22008KT 10SM CLR 29/15 A3004 RMK AO2 T02870145


Station Type Date Time Source
KPRO Decoded METAR 2022/06/29 00:55 UTC NOAA

Station name not available
Jun 28, 2022 - 08:55 PM EDT / 2022.06.29 0055 UTC
Wind: from the SW (220 degrees) at 9 MPH (8 KT):0
Visibility: 10 mile(s):0
Sky conditions: clear
Temperature: 83.7 F (28.7 C)
Dew Point: 58.1 F (14.5 C)
Relative Humidity: 41%
Pressure (altimeter): 30.04 in. Hg (1017 hPa)
ob: KPRO 290055Z AUTO 22008KT 10SM CLR 29/15 A3004 RMK AO2 T02870145
cycle: 1

Station Type Date Time Source
KPRO TAF UTC NOAA

Error!

Example: see airport list